Time;durP1;ratioP1;P1;durP2;ratioP2;P2;SDS_P1;SDS_P2;PMS_P1;PMS_P2;Temp;Humidity;BMP_temperature;BMP_pressure;BME280_temperature;BME280_humidity;BME280_pressure;Samples;Min_cycle;Max_cycle;Signal;HPM_P1;HPM_P2
2022/04/10 00:01:59;;;;;;;6.30;4.30;;;;;;;0.46;68.58;98764.11;447528;1267;344637;-66
2022/04/10 00:12:05;;;;;;;11.00;4.00;;;;;;;0.38;68.71;98766.77;447931;1267;141430;-66
2022/04/10 00:22:12;;;;;;;6.30;3.50;;;;;;;0.36;69.10;98767.55;447114;1267;142386;-66
2022/04/10 00:32:18;;;;;;;6.20;4.10;;;;;;;0.27;69.19;98768.04;444602;1267;142792;-66
2022/04/10 00:42:24;;;;;;;5.10;3.20;;;;;;;0.18;69.31;98786.41;434042;1267;142029;-66
2022/04/10 00:52:31;;;;;;;5.40;2.90;;;;;;;0.08;69.79;98789.67;446955;1267;142263;-66
2022/04/10 01:02:37;;;;;;;4.50;3.50;;;;;;;-0.02;69.74;98797.23;447936;1267;141839;-67
2022/04/10 01:12:43;;;;;;;5.20;3.40;;;;;;;-0.12;70.13;98805.14;447114;1267;141476;-65
2022/04/10 01:22:51;;;;;;;8.90;4.60;;;;;;;-0.17;70.51;98805.64;447939;1267;142420;-67
2022/04/10 01:32:57;;;;;;;6.10;4.70;;;;;;;-0.20;70.78;98812.09;447948;1266;142293;-66
2022/04/10 01:43:04;;;;;;;5.30;3.80;;;;;;;-0.19;71.10;98821.19;447165;1267;143244;-68
2022/04/10 01:53:10;;;;;;;5.70;3.60;;;;;;;-0.25;71.08;98834.28;447920;1266;197125;-66
2022/04/10 02:03:16;;;;;;;6.50;3.50;;;;;;;-0.33;71.58;98848.83;447839;1268;141645;-66
2022/04/10 02:13:22;;;;;;;5.20;3.40;;;;;;;-0.35;71.84;98859.88;447149;1267;144787;-65
2022/04/10 02:23:28;;;;;;;4.90;3.40;;;;;;;-0.47;71.84;98868.50;446319;1269;142483;-66
2022/04/10 02:33:34;;;;;;;4.90;3.00;;;;;;;-0.65;71.83;98870.40;447925;1267;141593;-66
2022/04/10 02:43:41;;;;;;;8.10;4.00;;;;;;;-0.81;72.21;98878.77;447926;1267;141432;-66
2022/04/10 02:53:47;;;;;;;4.40;2.50;;;;;;;-0.94;72.31;98892.73;447837;1267;141940;-69
2022/04/10 03:03:54;;;;;;;3.90;2.60;;;;;;;-1.03;72.62;98895.90;447142;1265;141833;-66
2022/04/10 03:14:00;;;;;;;3.70;3.20;;;;;;;-1.04;73.14;98894.54;447942;1267;142405;-66
2022/04/10 03:24:07;;;;;;;3.20;2.50;;;;;;;-1.08;73.26;98897.41;447946;1267;141385;-66
2022/04/10 03:34:13;;;;;;;4.20;2.50;;;;;;;-1.09;73.50;98909.63;442284;1269;141209;-66
2022/04/10 03:44:19;;;;;;;6.20;3.70;;;;;;;-1.12;73.85;98923.44;448000;1267;142117;-67
2022/04/10 03:54:25;;;;;;;5.50;3.20;;;;;;;-0.99;74.19;98946.11;447916;1267;142091;-66
2022/04/10 04:04:31;;;;;;;5.30;3.70;;;;;;;-0.49;74.22;98965.69;447164;1267;142657;-66
2022/04/10 04:14:37;;;;;;;6.70;3.90;;;;;;;0.05;73.61;98977.55;447988;1265;142452;-66
2022/04/10 04:24:43;;;;;;;7.30;5.20;;;;;;;0.49;73.20;98996.84;447137;1266;141726;-67
2022/04/10 04:34:50;;;;;;;9.90;4.80;;;;;;;0.73;72.60;99018.13;447885;1267;142083;-65
2022/04/10 04:44:56;;;;;;;6.90;4.00;;;;;;;0.86;72.10;99029.61;447917;1267;141860;-67
2022/04/10 04:55:02;;;;;;;6.60;4.90;;;;;;;1.17;72.03;99039.07;442245;1267;142076;-67
2022/04/10 05:05:09;;;;;;;4.40;4.00;;;;;;;1.56;71.77;99049.09;447925;1266;142659;-66
2022/04/10 05:15:15;;;;;;;7.40;3.00;;;;;;;1.95;71.43;99061.00;443824;1266;143052;-66
2022/04/10 05:25:21;;;;;;;4.10;2.70;;;;;;;2.03;70.95;99068.46;431330;1267;141416;-67
2022/04/10 05:35:27;;;;;;;4.30;2.80;;;;;;;2.23;70.90;99075.69;444144;1268;143399;-66
2022/04/10 05:45:33;;;;;;;5.60;3.80;;;;;;;3.09;70.53;99087.85;448032;1267;143189;-67
2022/04/10 05:55:39;;;;;;;4.90;3.00;;;;;;;4.39;67.91;99089.66;448028;1267;194209;-67
2022/04/10 06:05:45;;;;;;;7.80;3.80;;;;;;;4.28;67.45;99094.52;447886;1268;141430;-66
2022/04/10 06:15:52;;;;;;;5.50;2.90;;;;;;;4.15;66.80;99097.20;447256;1267;142196;-67
2022/04/10 06:25:58;;;;;;;8.30;3.70;;;;;;;4.04;66.85;99103.73;448031;1266;141478;-66
2022/04/10 06:36:04;;;;;;;6.30;3.10;;;;;;;4.20;66.23;99106.33;448025;1266;140884;-66
2022/04/10 06:46:10;;;;;;;8.20;3.30;;;;;;;4.37;65.23;99113.02;447287;1267;142609;-67
2022/04/10 06:56:16;;;;;;;10.40;3.40;;;;;;;4.48;64.63;99123.60;447846;1268;141394;-67
2022/04/10 07:06:22;;;;;;;9.20;3.70;;;;;;;4.14;63.77;99126.48;447917;1267;141501;-67
2022/04/10 07:16:27;;;;;;;8.30;4.00;;;;;;;3.97;64.11;99125.67;447289;1268;141406;-66
2022/04/10 07:26:34;;;;;;;6.00;5.10;;;;;;;3.94;63.80;99128.91;444393;1269;141771;-66
2022/04/10 07:36:40;;;;;;;7.30;5.30;;;;;;;3.76;63.78;99134.71;445190;1270;141289;-65
2022/04/10 07:57:09;;;;;;;9.00;5.60;;;;;;;3.68;64.21;99154.45;446234;1268;141940;-66
2022/04/10 08:07:16;;;;;;;12.00;6.20;;;;;;;3.68;64.01;99165.55;446231;1267;141383;-67
2022/04/10 08:17:23;;;;;;;8.90;5.80;;;;;;;3.87;63.75;99171.33;448044;1267;142262;-66
2022/04/10 08:27:28;;;;;;;6.40;5.20;;;;;;;4.22;64.09;99183.31;439450;1267;141271;-68
2022/04/10 08:37:34;;;;;;;11.90;4.20;;;;;;;5.69;61.60;99191.55;447134;1265;142253;-69
2022/04/10 08:47:42;;;;;;;4.90;3.30;;;;;;;5.93;59.70;99207.35;447878;1267;142827;-66
2022/04/10 08:57:48;;;;;;;7.60;4.30;;;;;;;5.64;59.02;99216.61;446980;1269;141322;-70
2022/04/10 09:08:14;;;;;;;8.60;5.10;;;;;;;5.05;59.29;99231.27;448120;1267;140252;-68
2022/04/10 09:18:20;;;;;;;9.10;3.50;;;;;;;4.56;59.86;99238.48;448182;1267;140763;-65
2022/04/10 09:28:43;;;;;;;5.80;3.90;;;;;;;4.71;59.75;99236.80;447411;1267;140587;-66
2022/04/10 09:38:49;;;;;;;5.40;4.60;;;;;;;5.08;59.14;99236.34;444331;1268;140811;-65
2022/04/10 09:48:55;;;;;;;6.10;3.80;;;;;;;5.64;58.71;99234.48;447294;1268;141484;-65
2022/04/10 09:59:06;;;;;;;10.10;3.30;;;;;;;6.97;56.87;99224.73;448080;1267;140965;-65
2022/04/10 10:09:12;;;;;;;6.90;3.80;;;;;;;6.94;55.04;99231.85;442087;1267;140409;-67
2022/04/10 10:19:19;;;;;;;7.00;3.30;;;;;;;6.44;55.49;99239.58;447251;1268;142196;-72
2022/04/10 10:29:46;;;;;;;4.60;2.40;;;;;;;6.84;54.30;99234.85;444262;1268;144012;-71
2022/04/10 10:39:52;;;;;;;6.00;3.00;;;;;;;6.86;53.21;99240.64;441776;1268;140973;-74
2022/04/10 10:49:58;;;;;;;11.40;3.00;;;;;;;6.61;53.41;99248.39;438799;1267;140151;-74
2022/04/10 11:00:12;;;;;;;6.50;3.40;;;;;;;6.85;53.20;99245.79;439444;1268;140677;-77
2022/04/10 11:10:18;;;;;;;10.90;4.30;;;;;;;6.83;53.21;99255.05;438031;1268;140195;-69
2022/04/10 11:20:25;;;;;;;3.60;3.10;;;;;;;7.33;52.85;99253.44;438374;1268;198137;-68
2022/04/10 11:30:34;;;;;;;10.80;4.00;;;;;;;8.04;51.95;99252.16;435257;1268;140535;-68
2022/04/10 11:40:41;;;;;;;10.70;3.80;;;;;;;8.59;50.37;99250.69;447862;1267;141827;-68
2022/04/10 11:50:47;;;;;;;11.90;2.60;;;;;;;8.19;49.50;99256.88;444101;1267;140807;-69
2022/04/10 12:00:58;;;;;;;5.90;2.90;;;;;;;7.66;49.93;99256.60;437921;1268;299803;-61
2022/04/10 12:11:05;;;;;;;7.10;2.80;;;;;;;6.71;50.76;99265.63;443014;1270;140384;-62
2022/04/10 12:21:11;;;;;;;7.60;2.80;;;;;;;7.16;51.02;99255.92;448000;1267;141445;-62
2022/04/10 12:31:19;;;;;;;7.50;3.10;;;;;;;7.25;50.17;99256.80;447218;1268;141816;-62
2022/04/10 12:41:27;;;;;;;;;;;;;;;7.38;50.18;99247.74;448019;1267;141698;-62
2022/04/10 12:51:33;;;;;;;4.20;2.50;;;;;;;7.40;49.23;99243.83;441339;1268;127686;-61
2022/04/10 13:01:39;;;;;;;4.80;2.40;;;;;;;7.51;48.79;99238.46;447762;1269;143103;-61
2022/04/10 13:11:45;;;;;;;3.90;2.70;;;;;;;7.42;48.34;99242.30;445130;1267;140316;-61
2022/04/10 13:21:51;;;;;;;5.10;1.90;;;;;;;7.77;47.92;99229.34;447343;1267;141245;-61
2022/04/10 13:31:57;;;;;;;2.70;1.70;;;;;;;7.39;46.47;99232.86;448039;1267;141041;-62
2022/04/10 13:42:04;;;;;;;1.60;1.00;;;;;;;7.13;46.07;99240.08;448127;1267;140720;-61
2022/04/10 13:52:10;;;;;;;4.60;1.90;;;;;;;7.51;46.21;99248.27;447292;1267;140160;-61
2022/04/10 14:02:16;;;;;;;3.50;2.30;;;;;;;7.60;46.15;99251.23;437284;1270;141883;-60
2022/04/10 14:12:24;;;;;;;3.00;1.90;;;;;;;7.69;45.65;99240.23;447999;1267;140922;-62
2022/04/10 14:22:31;;;;;;;2.60;1.50;;;;;;;7.62;46.09;99247.46;447307;1265;141205;-62
2022/04/10 14:32:36;;;;;;;2.90;1.50;;;;;;;7.76;45.68;99244.90;447964;1267;141704;-62
2022/04/10 14:42:42;;;;;;;2.60;1.80;;;;;;;7.33;45.11;99246.48;443792;1267;142453;-61
2022/04/10 14:52:48;;;;;;;2.90;1.40;;;;;;;6.96;46.11;99258.77;448111;1267;141126;-62
2022/04/10 15:02:56;;;;;;;3.40;1.30;;;;;;;6.94;46.42;99265.98;443614;1267;140729;-62
2022/04/10 15:13:02;;;;;;;2.80;1.70;;;;;;;7.09;46.67;99273.33;447241;1267;141685;-62
2022/04/10 15:23:08;;;;;;;4.60;1.50;;;;;;;7.21;46.79;99286.27;440654;1265;140316;-60
2022/04/10 15:33:14;;;;;;;2.60;1.50;;;;;;;7.27;46.62;99286.15;440168;1270;141877;-62
2022/04/10 15:43:20;;;;;;;2.60;1.80;;;;;;;7.11;46.85;99284.70;447117;1269;142375;-62
2022/04/10 15:53:25;;;;;;;3.00;2.40;;;;;;;6.72;46.96;99288.06;443287;1267;142224;-62
2022/04/10 16:03:31;;;;;;;2.80;2.30;;;;;;;6.65;47.46;99281.80;447963;1266;142204;-60
2022/04/10 16:13:37;;;;;;;2.50;1.50;;;;;;;6.49;47.46;99290.96;447981;1268;140911;-60
2022/04/10 16:23:43;;;;;;;5.40;2.10;;;;;;;6.42;47.52;99296.70;447963;1268;141255;-61
2022/04/10 16:44:12;;;;;;;3.40;2.10;;;;;;;6.17;47.26;99303.52;447956;1269;191892;-62
2022/04/10 17:04:41;;;;;;;3.90;2.40;;;;;;;5.24;48.54;99317.14;448014;1267;140904;-62
2022/04/10 17:14:47;;;;;;;6.50;3.20;;;;;;;4.81;49.12;99319.95;447664;1269;141631;-62
2022/04/10 17:24:54;;;;;;;8.20;3.00;;;;;;;4.44;50.27;99331.05;447202;1265;141082;-63
2022/04/10 17:35:02;;;;;;;15.80;6.40;;;;;;;4.26;50.93;99331.66;447787;1268;142635;-62
2022/04/10 17:45:09;;;;;;;13.30;5.90;;;;;;;4.24;51.60;99337.97;447991;1267;141217;-60
2022/04/10 17:55:15;;;;;;;8.10;2.90;;;;;;;4.28;51.86;99354.95;447331;1267;143401;-62
2022/04/10 18:05:21;;;;;;;4.80;3.10;;;;;;;4.23;53.31;99382.54;439464;1267;141324;-61
2022/04/10 18:15:27;;;;;;;7.60;4.10;;;;;;;4.10;55.68;99396.58;448024;1267;141325;-61
2022/04/10 18:25:33;;;;;;;3.70;3.10;;;;;;;3.97;56.80;99410.09;447073;1268;140892;-62
2022/04/10 18:35:39;;;;;;;5.40;3.30;;;;;;;3.61;57.65;99416.98;448125;1267;142546;-62
2022/04/10 18:45:45;;;;;;;5.90;2.80;;;;;;;3.13;58.34;99429.30;447309;1266;142620;-62
2022/04/10 18:55:54;;;;;;;18.30;10.30;;;;;;;2.73;59.37;99434.86;448131;1267;140755;-63
2022/04/10 19:06:00;;;;;;;27.90;13.70;;;;;;;2.25;60.34;99443.84;448051;1265;141768;-62
2022/04/10 19:16:07;;;;;;;23.40;13.80;;;;;;;2.08;61.63;99455.41;442067;1267;142111;-62
2022/04/10 19:26:13;;;;;;;17.10;9.40;;;;;;;2.09;62.03;99462.15;444989;1269;145519;-62
2022/04/10 19:36:21;;;;;;;26.90;12.80;;;;;;;1.85;62.51;99474.94;448056;1267;141701;-63
2022/04/10 19:46:26;;;;;;;9.10;5.50;;;;;;;1.48;63.05;99478.77;445424;1267;141382;-63
2022/04/10 19:56:32;;;;;;;53.30;26.90;;;;;;;1.16;63.81;99479.64;448022;1267;142130;-63
2022/04/10 20:06:38;;;;;;;52.50;22.60;;;;;;;0.85;64.34;99481.50;446342;1267;143091;-63
2022/04/10 20:16:44;;;;;;;29.30;13.30;;;;;;;0.63;64.98;99486.35;431135;1267;143969;-63
2022/04/10 20:26:50;;;;;;;29.30;16.90;;;;;;;0.43;65.67;99486.98;431236;1265;142035;-62
2022/04/10 20:36:56;;;;;;;26.40;12.90;;;;;;;0.08;66.06;99493.98;443370;1267;145773;-62
2022/04/10 20:47:02;;;;;;;33.40;14.40;;;;;;;-0.06;66.88;99501.20;447960;1269;141878;-63
2022/04/10 20:57:07;;;;;;;34.70;18.90;;;;;;;-0.08;67.06;99503.64;448062;1267;142160;-63
2022/04/10 21:07:13;;;;;;;29.30;14.70;;;;;;;-0.33;67.25;99509.66;447290;1267;142344;-63
2022/04/10 21:17:19;;;;;;;20.20;11.80;;;;;;;-0.55;67.87;99506.48;447740;1267;142269;-63
2022/04/10 21:27:25;;;;;;;20.20;11.20;;;;;;;-0.75;68.38;99502.40;447740;1267;142181;-62
2022/04/10 21:37:31;;;;;;;18.20;11.30;;;;;;;-0.91;68.96;99506.65;447283;1266;142984;-62
2022/04/10 21:47:36;;;;;;;20.60;12.20;;;;;;;-1.04;69.34;99517.52;447744;1265;142356;-62
2022/04/10 21:57:43;;;;;;;25.00;15.00;;;;;;;-1.13;70.20;99519.59;440785;1265;142356;-61
2022/04/10 22:07:49;;;;;;;21.90;13.90;;;;;;;-0.90;71.04;99517.45;433689;1267;141572;-61
2022/04/10 22:17:55;;;;;;;24.30;14.40;;;;;;;-0.87;71.08;99518.09;435889;1265;142997;-60
2022/04/10 22:28:01;;;;;;;24.70;15.20;;;;;;;-0.95;71.71;99519.95;446382;1268;142940;-61
2022/04/10 22:38:07;;;;;;;30.00;16.70;;;;;;;-1.10;71.75;99525.03;448122;1267;142672;-61
2022/04/10 22:48:13;;;;;;;21.40;13.60;;;;;;;-1.27;71.79;99523.41;447868;1268;142482;-61
2022/04/10 22:58:20;;;;;;;24.40;12.90;;;;;;;-1.47;71.97;99524.59;447296;1268;141383;-61
2022/04/10 23:08:25;;;;;;;17.10;11.60;;;;;;;-1.69;72.17;99524.76;448012;1268;144498;-62
2022/04/10 23:18:34;;;;;;;15.10;9.80;;;;;;;-1.80;72.50;99530.73;443309;1268;145950;-61
2022/04/10 23:28:40;;;;;;;11.40;7.40;;;;;;;-1.66;73.48;99532.25;448015;1267;142618;-61
2022/04/10 23:38:46;;;;;;;8.90;6.80;;;;;;;-1.57;73.40;99533.15;445459;1268;141014;-62
2022/04/10 23:48:52;;;;;;;9.30;6.80;;;;;;;-1.58;73.69;99540.89;437270;1269;141863;-60
2022/04/10 23:58:58;;;;;;;8.40;5.20;;;;;;;-1.59;73.78;99541.77;431572;1268;142001;-62
